Time;durP1;ratioP1;P1;durP2;ratioP2;P2;SDS_P1;SDS_P2;PMS_P1;PMS_P2;Temp;Humidity;BMP_temperature;BMP_pressure;BME280_temperature;BME280_humidity;BME280_pressure;Samples;Min_cycle;Max_cycle;Signal;HPM_P1;HPM_P2
2021/07/08 00:01:43;;;;;;;3.40;2.60;;;19.00;93.40;;;;;;5056306;28;20213;-75
2021/07/08 00:04:10;;;;;;;5.47;2.67;;;19.00;93.40;;;;;;5057111;28;20483;-76
2021/07/08 00:06:36;;;;;;;3.60;2.50;;;19.00;93.30;;;;;;5052624;28;20465;-76
2021/07/08 00:09:07;;;;;;;7.60;2.70;;;19.10;93.10;;;;;;5054921;28;20536;-76
2021/07/08 00:11:33;;;;;;;11.40;6.43;;;19.10;92.80;;;;;;5053541;28;20932;-75
2021/07/08 00:13:59;;;;;;;9.87;5.77;;;19.10;92.70;;;;;;5054879;28;20430;-76
2021/07/08 00:16:25;;;;;;;9.40;6.17;;;19.00;92.60;;;;;;5043473;28;20421;-74
2021/07/08 00:18:52;;;;;;;6.20;3.90;;;19.00;93.00;;;;;;5051920;28;20960;-76
2021/07/08 00:21:20;;;;;;;9.10;3.93;;;18.90;93.30;;;;;;5054046;28;20217;-77
2021/07/08 00:23:46;;;;;;;9.07;3.57;;;18.90;93.40;;;;;;5057768;28;20423;-76
2021/07/08 00:26:12;;;;;;;4.63;3.20;;;18.90;93.50;;;;;;5054450;28;20440;-75
2021/07/08 00:28:38;;;;;;;8.33;4.23;;;18.90;93.60;;;;;;5057777;28;20473;-75
2021/07/08 00:31:04;;;;;;;5.80;3.00;;;18.90;93.50;;;;;;5059628;28;20176;-77
2021/07/08 00:33:29;;;;;;;4.27;2.37;;;19.00;93.40;;;;;;5056403;28;20432;-75
2021/07/08 00:35:55;;;;;;;4.10;2.30;;;19.00;93.40;;;;;;5063857;28;20190;-75
2021/07/08 00:38:21;;;;;;;4.30;2.70;;;18.90;93.30;;;;;;5055241;28;20211;-76
2021/07/08 00:40:47;;;;;;;5.57;2.50;;;18.90;93.20;;;;;;5055440;28;20192;-75
2021/07/08 00:43:13;;;;;;;4.00;3.17;;;18.80;93.40;;;;;;5060988;28;20186;-75
2021/07/08 00:45:39;;;;;;;4.67;3.43;;;18.80;93.50;;;;;;5053995;28;20943;-75
2021/07/08 00:48:05;;;;;;;3.53;2.60;;;18.80;93.80;;;;;;5053769;28;20471;-73
2021/07/08 00:50:34;;;;;;;8.30;2.33;;;18.80;94.10;;;;;;5053505;28;20912;-74
2021/07/08 00:53:02;;;;;;;2.97;2.57;;;18.70;94.00;;;;;;5053699;28;20432;-74
2021/07/08 00:55:28;;;;;;;3.33;2.50;;;18.70;94.20;;;;;;5053686;28;20485;-75
2021/07/08 00:57:54;;;;;;;3.10;2.60;;;18.70;94.40;;;;;;5051686;28;20824;-74
2021/07/08 01:00:23;;;;;;;3.40;2.63;;;18.70;94.60;;;;;;5053869;28;20201;-74
2021/07/08 01:02:50;;;;;;;2.60;2.30;;;18.70;94.80;;;;;;5053476;28;20912;-75
2021/07/08 01:05:18;;;;;;;3.90;2.80;;;18.70;95.00;;;;;;5053915;28;20425;-75
2021/07/08 01:07:45;;;;;;;3.23;2.50;;;18.80;94.50;;;;;;5053968;28;20502;-76
2021/07/08 01:10:13;;;;;;;6.13;3.73;;;18.80;94.40;;;;;;5055191;28;20426;-75
2021/07/08 01:12:38;;;;;;;7.70;3.80;;;18.80;94.70;;;;;;5045685;28;20424;-75
2021/07/08 01:15:06;;;;;;;5.80;3.30;;;18.80;95.00;;;;;;5052844;28;20419;-76
2021/07/08 01:17:31;;;;;;;6.90;3.50;;;18.80;95.10;;;;;;5052577;28;20231;-76
2021/07/08 01:19:57;;;;;;;4.20;3.00;;;18.80;95.30;;;;;;5052794;28;20476;-75
2021/07/08 01:22:23;;;;;;;9.00;4.60;;;18.80;95.30;;;;;;5051826;28;20662;-76
2021/07/08 01:24:49;;;;;;;8.20;3.63;;;18.80;95.10;;;;;;5051698;28;20687;-76
2021/07/08 01:27:15;;;;;;;5.70;3.30;;;18.80;95.20;;;;;;5051720;28;20196;-75
2021/07/08 01:29:41;;;;;;;5.30;3.40;;;18.70;95.40;;;;;;5051238;28;20504;-76
2021/07/08 01:32:07;;;;;;;4.70;3.07;;;18.80;95.10;;;;;;5048819;28;20438;-76
2021/07/08 01:34:33;;;;;;;8.63;3.57;;;18.80;95.00;;;;;;5049951;28;20490;-74
2021/07/08 01:36:59;;;;;;;4.40;3.40;;;18.80;95.20;;;;;;5046584;28;20430;-75
2021/07/08 01:39:25;;;;;;;5.27;3.33;;;18.80;95.10;;;;;;5051326;28;20611;-75
2021/07/08 01:41:50;;;;;;;3.20;2.90;;;18.80;94.90;;;;;;5050253;28;20218;-75
2021/07/08 01:44:17;;;;;;;6.83;3.73;;;18.90;94.50;;;;;;5047650;28;20474;-75
2021/07/08 01:46:43;;;;;;;6.07;2.93;;;18.90;94.40;;;;;;5048758;28;20189;-76
2021/07/08 01:49:10;;;;;;;5.20;3.97;;;18.90;94.60;;;;;;5050919;28;20477;-73
2021/07/08 01:51:36;;;;;;;6.90;4.60;;;18.90;94.20;;;;;;5049989;28;20935;-76
2021/07/08 01:54:05;;;;;;;4.30;3.33;;;18.90;94.00;;;;;;5051185;28;20603;-75
2021/07/08 01:56:33;;;;;;;5.30;4.13;;;18.70;94.70;;;;;;5050957;28;20920;-75
2021/07/08 01:58:58;;;;;;;5.57;3.60;;;18.60;95.50;;;;;;5057290;28;20961;-76
2021/07/08 02:01:24;;;;;;;6.50;3.80;;;18.50;95.80;;;;;;5049870;28;20435;-74
2021/07/08 02:03:50;;;;;;;4.70;3.53;;;18.50;96.10;;;;;;5051129;28;20913;-75
2021/07/08 02:06:17;;;;;;;6.53;3.30;;;18.40;96.50;;;;;;5050975;28;20927;-75
2021/07/08 02:08:43;;;;;;;4.90;3.30;;;18.30;96.80;;;;;;5047878;28;20941;-75
2021/07/08 02:11:10;;;;;;;4.33;3.33;;;18.20;97.20;;;;;;5048131;28;20444;-74
2021/07/08 02:13:38;;;;;;;5.97;3.90;;;18.00;97.60;;;;;;5051019;28;20506;-74
2021/07/08 02:16:05;;;;;;;6.53;3.63;;;18.00;98.00;;;;;;5046743;28;20904;-75
2021/07/08 02:18:31;;;;;;;5.10;3.73;;;17.90;98.20;;;;;;5045310;28;20465;-75
2021/07/08 02:20:57;;;;;;;4.70;3.40;;;17.80;98.30;;;;;;5047595;28;21552;-76
2021/07/08 02:23:23;;;;;;;8.63;4.13;;;17.80;98.60;;;;;;5047324;28;20437;-76
2021/07/08 02:25:49;;;;;;;5.30;4.00;;;17.80;98.70;;;;;;5050627;28;20219;-75
2021/07/08 02:28:14;;;;;;;6.33;3.90;;;17.80;98.60;;;;;;5049876;28;20215;-76
2021/07/08 02:30:40;;;;;;;7.13;4.37;;;17.80;98.70;;;;;;5047852;28;20241;-76
2021/07/08 02:33:08;;;;;;;8.90;4.33;;;17.70;98.80;;;;;;5048927;28;20216;-75
2021/07/08 02:35:35;;;;;;;6.80;4.60;;;17.80;98.80;;;;;;5049015;28;20190;-76
2021/07/08 02:38:02;;;;;;;11.50;4.43;;;17.90;98.40;;;;;;5050254;28;20458;-75
2021/07/08 02:40:31;;;;;;;5.93;3.80;;;17.90;98.10;;;;;;5043328;28;20432;-76
2021/07/08 02:42:58;;;;;;;4.60;3.30;;;18.00;98.00;;;;;;5041282;28;20510;-75
2021/07/08 02:45:29;;;;;;;7.83;3.77;;;18.00;97.80;;;;;;5044296;28;20427;-75
2021/07/08 02:47:57;;;;;;;5.73;3.70;;;18.00;97.60;;;;;;5048649;28;21004;-75
2021/07/08 02:50:25;;;;;;;6.50;3.90;;;18.00;97.40;;;;;;5038189;28;20429;-75
2021/07/08 02:52:51;;;;;;;7.13;3.80;;;18.10;97.50;;;;;;5047783;28;20807;-76
2021/07/08 02:55:17;;;;;;;4.93;3.47;;;18.10;97.30;;;;;;5050851;28;20805;-75
2021/07/08 02:57:46;;;;;;;5.20;3.13;;;18.10;97.50;;;;;;5049390;28;20778;-75
2021/07/08 03:00:15;;;;;;;5.43;3.70;;;18.00;97.60;;;;;;5048660;28;20795;-75
2021/07/08 03:02:41;;;;;;;6.30;4.03;;;18.00;97.80;;;;;;5050697;28;20435;-75
2021/07/08 03:05:09;;;;;;;5.83;3.70;;;18.00;97.80;;;;;;5050073;28;20446;-74
2021/07/08 03:07:35;;;;;;;5.20;3.60;;;18.00;97.80;;;;;;5049366;28;20427;-76
2021/07/08 03:10:01;;;;;;;3.97;3.10;;;18.00;97.90;;;;;;5049091;28;20446;-76
2021/07/08 03:12:28;;;;;;;6.47;3.87;;;18.10;98.10;;;;;;5049168;28;20907;-75
2021/07/08 03:14:53;;;;;;;5.43;3.40;;;18.10;98.20;;;;;;5050015;28;20233;-75
2021/07/08 03:17:19;;;;;;;5.23;3.60;;;18.10;98.00;;;;;;5050584;28;20438;-76
2021/07/08 03:19:45;;;;;;;5.50;3.60;;;18.00;97.60;;;;;;5045457;28;20237;-74
2021/07/08 03:22:11;;;;;;;6.57;3.60;;;18.00;97.70;;;;;;5052249;28;20193;-75
2021/07/08 03:24:36;;;;;;;4.20;3.50;;;18.00;97.70;;;;;;5056915;28;20191;-75
2021/07/08 03:27:02;;;;;;;4.50;3.37;;;18.10;97.90;;;;;;5059281;28;20256;-75
2021/07/08 03:29:29;;;;;;;4.43;3.30;;;18.10;97.70;;;;;;5056191;28;20705;-76
2021/07/08 03:31:54;;;;;;;4.63;3.50;;;18.10;97.60;;;;;;5049843;28;20948;-75
2021/07/08 03:34:20;;;;;;;5.87;3.80;;;18.00;97.50;;;;;;5057367;28;20517;-75
2021/07/08 03:36:48;;;;;;;7.10;3.70;;;17.90;97.50;;;;;;5059421;28;20184;-75
2021/07/08 03:39:14;;;;;;;6.23;3.33;;;17.90;97.70;;;;;;5057168;28;20261;-76
2021/07/08 03:41:40;;;;;;;4.17;2.90;;;17.90;97.80;;;;;;5059464;28;20424;-75
2021/07/08 03:44:06;;;;;;;6.63;3.20;;;17.90;97.90;;;;;;5058541;28;20676;-74
2021/07/08 03:46:32;;;;;;;5.10;3.20;;;18.00;98.00;;;;;;5055872;28;20940;-78
2021/07/08 03:48:58;;;;;;;4.30;3.23;;;18.00;98.00;;;;;;5058740;28;20469;-75
2021/07/08 03:51:23;;;;;;;4.83;3.80;;;18.00;97.80;;;;;;5057540;28;20235;-76
2021/07/08 03:53:49;;;;;;;5.40;3.23;;;18.00;97.40;;;;;;5059970;28;20183;-76
2021/07/08 03:56:15;;;;;;;7.77;3.80;;;18.00;97.20;;;;;;5051743;28;20272;-76
2021/07/08 03:58:42;;;;;;;6.60;3.27;;;18.00;97.30;;;;;;5050556;28;20290;-75
2021/07/08 04:01:07;;;;;;;4.17;3.00;;;18.10;97.30;;;;;;5050661;28;20261;-75
2021/07/08 04:03:34;;;;;;;5.50;3.50;;;18.10;97.30;;;;;;5051770;28;20434;-75
2021/07/08 04:05:59;;;;;;;9.73;3.77;;;18.10;97.20;;;;;;5047883;28;20844;-76
2021/07/08 04:08:25;;;;;;;5.43;4.30;;;18.10;97.30;;;;;;5052212;28;20472;-75
2021/07/08 04:10:51;;;;;;;5.40;3.50;;;18.20;97.30;;;;;;5050918;28;20245;-75
2021/07/08 04:13:21;;;;;;;6.03;4.20;;;18.20;97.00;;;;;;5052361;28;20453;-74
2021/07/08 04:15:48;;;;;;;4.50;3.10;;;18.30;96.80;;;;;;5052964;28;20186;-75
2021/07/08 04:18:15;;;;;;;5.27;3.60;;;18.30;96.50;;;;;;5052639;28;20442;-75
2021/07/08 04:20:42;;;;;;;4.90;4.10;;;18.30;96.50;;;;;;5050735;28;20476;-75
2021/07/08 04:23:09;;;;;;;5.57;3.27;;;18.30;96.40;;;;;;5067646;28;20441;-75
2021/07/08 04:25:35;;;;;;;6.30;3.87;;;18.30;96.30;;;;;;5052684;28;20427;-75
2021/07/08 04:28:01;;;;;;;5.17;4.20;;;18.30;96.20;;;;;;5047353;28;20523;-75
2021/07/08 04:30:27;;;;;;;6.60;3.47;;;18.30;96.30;;;;;;5049278;28;20437;-75
2021/07/08 04:32:54;;;;;;;6.43;3.80;;;18.40;96.50;;;;;;5051517;28;20427;-75
2021/07/08 04:35:25;;;;;;;7.00;4.20;;;18.40;96.70;;;;;;5052540;28;20773;-74
2021/07/08 04:37:51;;;;;;;4.30;3.60;;;18.40;96.50;;;;;;5052389;28;20431;-75
2021/07/08 04:40:19;;;;;;;6.10;4.00;;;18.50;96.30;;;;;;5047517;28;20432;-75
2021/07/08 04:42:46;;;;;;;7.93;4.20;;;18.50;95.80;;;;;;5048762;28;20450;-75
2021/07/08 04:45:12;;;;;;;6.50;4.53;;;18.60;95.60;;;;;;5051079;28;20428;-75
2021/07/08 04:47:44;;;;;;;5.50;3.83;;;18.60;95.40;;;;;;5051973;28;20419;-72
2021/07/08 04:50:12;;;;;;;5.97;4.20;;;18.50;95.60;;;;;;5046602;28;20423;-72
2021/07/08 04:52:38;;;;;;;6.23;4.20;;;18.60;95.70;;;;;;5051569;28;20920;-71
2021/07/08 04:55:05;;;;;;;5.53;3.80;;;18.60;95.70;;;;;;5051726;28;20425;-71
2021/07/08 04:57:31;;;;;;;10.50;4.30;;;18.70;95.80;;;;;;5052299;28;20423;-73
2021/07/08 04:59:57;;;;;;;6.27;4.07;;;18.70;95.60;;;;;;5041539;28;20447;-71
2021/07/08 05:02:23;;;;;;;7.80;4.90;;;18.70;95.20;;;;;;5050657;28;20432;-71
2021/07/08 05:04:49;;;;;;;5.37;3.63;;;18.70;94.90;;;;;;5049628;28;20204;-72
2021/07/08 05:07:16;;;;;;;5.67;4.00;;;18.70;95.00;;;;;;5051043;28;20435;-72
2021/07/08 05:09:42;;;;;;;8.70;4.50;;;18.70;95.20;;;;;;5052053;28;20217;-73
2021/07/08 05:12:08;;;;;;;9.10;4.70;;;18.70;95.20;;;;;;5050239;28;20519;-72
2021/07/08 05:14:34;;;;;;;7.50;4.60;;;18.80;94.90;;;;;;5052171;28;20538;-73
2021/07/08 05:17:04;;;;;;;7.70;3.90;;;18.80;94.40;;;;;;5052250;28;20577;-74
2021/07/08 05:19:30;;;;;;;5.23;4.07;;;18.80;94.50;;;;;;5051212;28;20447;-74
2021/07/08 05:22:00;;;;;;;7.17;4.50;;;18.90;94.60;;;;;;5050973;28;20483;-74
2021/07/08 05:24:26;;;;;;;5.57;4.30;;;18.90;94.50;;;;;;5046744;28;20434;-72
2021/07/08 05:26:53;;;;;;;6.87;4.10;;;19.00;94.20;;;;;;5049624;28;20438;-75
2021/07/08 05:29:22;;;;;;;8.93;5.13;;;19.00;93.90;;;;;;5045265;28;20467;-75
2021/07/08 05:31:49;;;;;;;11.90;5.27;;;18.90;93.80;;;;;;5049168;28;21042;-74
2021/07/08 05:34:14;;;;;;;8.87;4.37;;;18.80;94.20;;;;;;5049897;28;21014;-75
2021/07/08 05:36:40;;;;;;;8.90;4.77;;;18.80;94.20;;;;;;5046752;28;20517;-74
2021/07/08 05:39:06;;;;;;;10.77;4.90;;;18.90;94.40;;;;;;5050078;28;20672;-75
2021/07/08 05:41:32;;;;;;;9.27;4.93;;;19.00;94.10;;;;;;5045392;28;20659;-75
2021/07/08 05:43:58;;;;;;;10.30;4.67;;;18.90;93.80;;;;;;5050736;28;20323;-75
2021/07/08 05:46:23;;;;;;;11.47;5.17;;;18.80;94.00;;;;;;5046189;28;20420;-75
2021/07/08 05:48:49;;;;;;;7.97;5.07;;;18.70;94.40;;;;;;5051251;28;20212;-75
2021/07/08 05:51:15;;;;;;;9.13;4.33;;;18.60;94.80;;;;;;5044081;28;21425;-73
2021/07/08 05:53:41;;;;;;;8.20;4.77;;;18.50;95.20;;;;;;5045005;28;20191;-74
2021/07/08 05:56:07;;;;;;;10.27;5.50;;;18.50;95.30;;;;;;5051843;28;21014;-73
2021/07/08 05:58:32;;;;;;;6.40;4.17;;;18.40;95.60;;;;;;5052093;28;20969;-73
2021/07/08 06:00:59;;;;;;;8.33;4.83;;;18.40;95.80;;;;;;5047216;28;20195;-73
2021/07/08 06:03:24;;;;;;;9.00;4.67;;;18.40;95.80;;;;;;5047599;28;20188;-74
2021/07/08 06:05:51;;;;;;;8.43;4.70;;;18.40;96.00;;;;;;5049318;28;20434;-76
2021/07/08 06:08:17;;;;;;;7.80;5.23;;;18.40;96.20;;;;;;5051748;28;20235;-73
2021/07/08 06:10:43;;;;;;;12.50;5.50;;;18.40;96.30;;;;;;5049592;28;20419;-73
2021/07/08 06:13:10;;;;;;;11.13;5.20;;;18.30;96.30;;;;;;5050027;28;20470;-73
2021/07/08 06:15:36;;;;;;;9.87;6.27;;;18.30;96.60;;;;;;5051137;28;20472;-74
2021/07/08 06:18:03;;;;;;;8.23;5.40;;;18.40;96.50;;;;;;5043454;28;20439;-73
2021/07/08 06:20:29;;;;;;;6.60;5.17;;;18.50;96.10;;;;;;5050338;28;20430;-75
2021/07/08 06:22:55;;;;;;;8.93;5.00;;;18.60;96.20;;;;;;5046124;28;20925;-73
2021/07/08 06:25:23;;;;;;;10.50;5.70;;;18.70;96.00;;;;;;5050458;28;20419;-75
2021/07/08 06:27:49;;;;;;;8.00;5.43;;;18.80;95.60;;;;;;5051007;28;21048;-75
2021/07/08 06:30:16;;;;;;;8.70;4.70;;;18.80;95.10;;;;;;5066125;28;20434;-74
2021/07/08 06:32:43;;;;;;;8.03;5.07;;;19.00;95.10;;;;;;5066247;28;20416;-76
2021/07/08 06:35:09;;;;;;;6.43;4.70;;;19.10;94.80;;;;;;5052761;28;20441;-75
2021/07/08 06:37:36;;;;;;;11.20;4.53;;;19.20;94.10;;;;;;5053235;28;20421;-74
2021/07/08 06:40:03;;;;;;;8.23;5.20;;;19.30;94.10;;;;;;5065307;28;20441;-75
2021/07/08 06:42:29;;;;;;;9.70;5.33;;;19.40;93.90;;;;;;5064052;28;20410;-75
2021/07/08 06:44:55;;;;;;;9.60;5.60;;;19.40;93.70;;;;;;5054956;28;20439;-74
2021/07/08 06:47:21;;;;;;;10.50;6.20;;;19.20;93.90;;;;;;5053534;28;20619;-74
2021/07/08 06:49:47;;;;;;;7.40;4.77;;;19.10;94.20;;;;;;5050168;28;20295;-76
2021/07/08 06:52:16;;;;;;;11.17;6.63;;;19.00;94.60;;;;;;5050520;28;20859;-76
2021/07/08 06:54:41;;;;;;;8.17;5.13;;;19.10;94.90;;;;;;5043575;28;20186;-75
2021/07/08 06:57:07;;;;;;;7.57;5.20;;;19.20;94.90;;;;;;5051005;28;20448;-77
2021/07/08 06:59:33;;;;;;;9.87;4.80;;;19.20;94.90;;;;;;5050010;28;20226;-74
2021/07/08 07:01:59;;;;;;;8.13;4.80;;;19.30;94.60;;;;;;5050871;28;20191;-75
2021/07/08 07:04:25;;;;;;;8.83;4.70;;;19.40;94.30;;;;;;5051382;28;20571;-76
2021/07/08 07:06:51;;;;;;;9.27;5.17;;;19.50;94.10;;;;;;5053409;28;21021;-75
2021/07/08 07:09:18;;;;;;;7.47;4.60;;;19.70;93.60;;;;;;5050693;28;20295;-75
2021/07/08 07:11:44;;;;;;;8.50;4.20;;;19.80;93.30;;;;;;5051822;28;20173;-76
2021/07/08 07:14:10;;;;;;;6.77;4.30;;;19.90;93.00;;;;;;5052802;28;20415;-75
2021/07/08 07:16:35;;;;;;;6.23;4.60;;;19.90;93.00;;;;;;5056616;28;20192;-74
2021/07/08 07:19:01;;;;;;;7.53;4.20;;;20.10;92.40;;;;;;5062152;28;20217;-74
2021/07/08 07:21:27;;;;;;;7.43;3.93;;;20.20;92.10;;;;;;5061098;28;20187;-74
2021/07/08 07:23:53;;;;;;;4.60;3.50;;;20.30;91.50;;;;;;5051458;28;20271;-75
2021/07/08 07:26:21;;;;;;;7.80;3.97;;;20.40;91.10;;;;;;5048984;28;20560;-73
2021/07/08 07:28:48;;;;;;;6.27;3.80;;;20.40;90.40;;;;;;5049534;28;20269;-74
2021/07/08 07:31:15;;;;;;;7.53;4.60;;;20.40;90.80;;;;;;5048771;28;20423;-74
2021/07/08 07:33:42;;;;;;;7.07;5.07;;;20.40;90.70;;;;;;5050120;28;20445;-73
2021/07/08 07:36:10;;;;;;;10.30;5.60;;;20.50;90.90;;;;;;5051192;28;20441;-75
2021/07/08 07:38:37;;;;;;;6.50;4.00;;;20.60;90.90;;;;;;5050175;28;20438;-74
2021/07/08 07:41:03;;;;;;;10.83;4.50;;;20.70;90.50;;;;;;5049359;28;20558;-75
2021/07/08 07:43:28;;;;;;;5.03;4.07;;;20.80;90.30;;;;;;5051127;28;21295;-73
2021/07/08 07:45:54;;;;;;;5.77;4.47;;;21.00;90.10;;;;;;5052109;28;20214;-75
2021/07/08 07:48:20;;;;;;;9.37;5.40;;;21.10;89.60;;;;;;5051014;28;20223;-74
2021/07/08 07:50:46;;;;;;;5.10;3.83;;;21.20;88.00;;;;;;5049269;28;20514;-74
2021/07/08 07:53:11;;;;;;;5.13;3.83;;;21.20;88.00;;;;;;5049910;28;20189;-76
2021/07/08 07:55:37;;;;;;;4.17;3.30;;;21.30;88.10;;;;;;5048676;28;20994;-76
2021/07/08 07:58:05;;;;;;;4.13;3.30;;;21.40;86.90;;;;;;5049657;28;20210;-75
2021/07/08 08:00:31;;;;;;;5.40;4.10;;;21.50;85.60;;;;;;5049847;28;20220;-74
2021/07/08 08:02:57;;;;;;;4.67;3.40;;;21.60;84.90;;;;;;5046817;28;20491;-74
2021/07/08 08:10:38;;;;;;;6.30;3.10;;;21.40;85.00;;;;;;5048906;28;20993;-75
2021/07/08 08:13:05;;;;;;;4.60;2.83;;;21.40;85.60;;;;;;5043236;28;20416;-74
2021/07/08 08:15:31;;;;;;;4.67;3.53;;;21.40;86.20;;;;;;5048192;28;20436;-76
2021/07/08 08:18:01;;;;;;;4.30;3.00;;;21.40;85.90;;;;;;5047171;28;20456;-76
2021/07/08 08:20:27;;;;;;;7.20;3.23;;;21.40;85.70;;;;;;5049384;28;20428;-74
2021/07/08 08:22:53;;;;;;;5.43;3.63;;;21.40;85.50;;;;;;5049375;28;20421;-76
2021/07/08 08:25:19;;;;;;;4.00;3.30;;;21.50;86.20;;;;;;5050828;28;20433;-74
2021/07/08 08:27:45;;;;;;;6.10;3.70;;;21.70;85.90;;;;;;5051637;28;20271;-75
2021/07/08 08:30:13;;;;;;;6.13;3.50;;;21.80;85.30;;;;;;5052788;28;20178;-75
2021/07/08 08:32:39;;;;;;;4.07;3.30;;;21.90;84.90;;;;;;5053748;28;20197;-75
2021/07/08 08:35:05;;;;;;;4.50;3.43;;;21.90;84.30;;;;;;5054275;28;20442;-74
2021/07/08 08:37:31;;;;;;;6.03;3.60;;;21.90;83.80;;;;;;5053186;28;20506;-75
2021/07/08 08:39:57;;;;;;;7.00;4.10;;;22.00;84.30;;;;;;5049386;28;21003;-74
2021/07/08 08:42:25;;;;;;;6.57;4.50;;;22.20;82.70;;;;;;5048032;28;20243;-74
2021/07/08 08:44:51;;;;;;;6.30;4.23;;;22.10;82.40;;;;;;5052825;28;20191;-74
2021/07/08 08:47:17;;;;;;;6.10;4.20;;;22.20;81.70;;;;;;5053041;28;20426;-74
2021/07/08 08:49:43;;;;;;;10.27;5.13;;;22.40;81.40;;;;;;5052364;28;20507;-74
2021/07/08 08:52:10;;;;;;;5.10;3.63;;;22.50;81.20;;;;;;5050518;28;20219;-75
2021/07/08 08:54:37;;;;;;;5.90;4.00;;;22.50;79.50;;;;;;5050986;28;20184;-73
2021/07/08 08:57:03;;;;;;;6.10;4.40;;;22.70;79.70;;;;;;5052877;28;20418;-75
2021/07/08 08:59:29;;;;;;;7.43;3.90;;;22.60;79.50;;;;;;5042232;28;20453;-75
2021/07/08 09:02:16;;;;;;;6.43;4.03;;;22.50;79.00;;;;;;5051501;28;20426;-74
2021/07/08 09:04:42;;;;;;;6.10;3.90;;;22.60;80.00;;;;;;5052522;28;20487;-75
2021/07/08 09:07:26;;;;;;;7.63;4.27;;;22.50;78.30;;;;;;5054046;28;20433;-74
2021/07/08 09:09:54;;;;;;;5.90;4.00;;;22.60;77.80;;;;;;5054770;28;20590;-75
2021/07/08 09:12:23;;;;;;;7.87;5.03;;;22.60;79.00;;;;;;5047244;28;20422;-74
2021/07/08 09:14:50;;;;;;;4.33;3.50;;;22.70;79.30;;;;;;5052981;28;20937;-74
2021/07/08 09:17:21;;;;;;;4.83;3.60;;;22.70;78.60;;;;;;5055137;28;20435;-74
2021/07/08 09:19:48;;;;;;;5.17;3.67;;;22.80;78.90;;;;;;5052241;28;20527;-75
2021/07/08 09:22:30;;;;;;;5.93;4.00;;;23.00;78.60;;;;;;5053115;28;20505;-74
2021/07/08 09:24:56;;;;;;;5.70;3.73;;;23.20;77.70;;;;;;5052519;28;20449;-76
2021/07/08 09:27:26;;;;;;;6.10;4.07;;;23.20;78.10;;;;;;5050412;28;20801;-76
2021/07/08 09:29:53;;;;;;;7.13;4.07;;;23.30;78.40;;;;;;5050136;28;20721;-75
2021/07/08 09:32:22;;;;;;;6.70;4.70;;;23.20;76.50;;;;;;5051758;28;20433;-73
2021/07/08 09:34:59;;;;;;;6.20;4.10;;;22.90;76.70;;;;;;5052444;28;20453;-76
2021/07/08 09:37:29;;;;;;;5.83;4.50;;;22.40;78.90;;;;;;5052451;28;20411;-73
2021/07/08 09:39:57;;;;;;;7.50;4.43;;;22.10;80.30;;;;;;5052105;28;20452;-75
2021/07/08 09:42:55;;;;;;;6.20;4.30;;;21.90;81.90;;;;;;5052043;28;20498;-75
2021/07/08 09:45:21;;;;;;;6.30;4.57;;;21.90;79.60;;;;;;5029596;28;20442;-75
2021/07/08 09:47:47;;;;;;;4.97;3.90;;;21.70;81.50;;;;;;5028299;28;20425;-76
2021/07/08 09:50:34;;;;;;;6.57;3.93;;;21.70;82.10;;;;;;5029469;28;20415;-74
2021/07/08 09:53:06;;;;;;;5.17;3.90;;;21.90;81.80;;;;;;5021338;28;20500;-75
2021/07/08 09:56:00;;;;;;;5.93;3.70;;;22.00;81.20;;;;;;5029283;28;20444;-73
2021/07/08 09:58:27;;;;;;;5.23;3.33;;;22.10;80.80;;;;;;5008409;28;20896;-74
2021/07/08 10:00:54;;;;;;;8.10;4.13;;;22.10;80.80;;;;;;5027868;28;20469;-74
2021/07/08 10:03:20;;;;;;;7.87;3.80;;;22.20;80.50;;;;;;5028756;28;20430;-74
2021/07/08 10:05:45;;;;;;;6.00;3.33;;;22.40;80.00;;;;;;5028882;28;20839;-75
2021/07/08 10:08:12;;;;;;;7.60;4.20;;;22.50;78.90;;;;;;5027153;28;20548;-73
2021/07/08 10:10:39;;;;;;;8.10;4.57;;;22.50;78.10;;;;;;5027335;28;20719;-74
2021/07/08 10:13:07;;;;;;;5.57;3.63;;;22.50;78.70;;;;;;5028922;28;20985;-76
2021/07/08 10:15:35;;;;;;;2.87;2.40;;;22.70;77.60;;;;;;5028584;28;20530;-75
2021/07/08 10:18:04;;;;;;;4.50;2.73;;;22.80;75.90;;;;;;5020330;28;20459;-74
2021/07/08 10:20:30;;;;;;;4.93;3.03;;;23.00;74.50;;;;;;5034706;28;20442;-76
2021/07/08 10:22:57;;;;;;;3.20;2.47;;;23.20;73.30;;;;;;5050682;28;20859;-73
2021/07/08 10:25:23;;;;;;;4.63;2.27;;;23.50;71.60;;;;;;5050129;28;20434;-76
2021/07/08 10:27:51;;;;;;;3.70;2.90;;;23.70;71.70;;;;;;5049003;28;20420;-75
2021/07/08 10:30:20;;;;;;;4.30;3.00;;;24.00;70.80;;;;;;5050883;28;20214;-73
2021/07/08 10:32:56;;;;;;;3.10;2.67;;;24.10;70.10;;;;;;5051419;28;20432;-76
2021/07/08 10:35:48;;;;;;;5.43;2.97;;;24.30;69.20;;;;;;5051290;28;20442;-74
2021/07/08 10:38:34;;;;;;;4.00;2.57;;;24.50;68.60;;;;;;5049355;28;20459;-74
2021/07/08 10:41:07;;;;;;;3.97;2.80;;;24.50;67.30;;;;;;5051156;28;20476;-74
2021/07/08 10:43:34;;;;;;;4.37;2.80;;;24.40;67.60;;;;;;5052737;28;20429;-75
2021/07/08 10:46:06;;;;;;;4.90;3.43;;;24.30;68.00;;;;;;5050915;28;20460;-73
2021/07/08 10:49:09;;;;;;;7.07;3.37;;;24.30;69.10;;;;;;5054110;28;20502;-74
2021/07/08 10:51:37;;;;;;;4.93;2.87;;;24.40;68.30;;;;;;5055278;28;20424;-72
2021/07/08 10:54:29;;;;;;;3.27;2.60;;;24.30;68.00;;;;;;5055602;28;20412;-74
2021/07/08 10:57:00;;;;;;;3.77;2.87;;;24.20;68.20;;;;;;5053638;28;20420;-73
2021/07/08 10:59:42;;;;;;;3.40;2.50;;;24.10;68.60;;;;;;5050117;28;20442;-75
2021/07/08 11:02:08;;;;;;;2.83;2.47;;;24.10;68.80;;;;;;5038238;28;20758;-75
2021/07/08 11:04:49;;;;;;;5.20;2.67;;;24.10;69.10;;;;;;5050397;28;20521;-77
2021/07/08 11:07:19;;;;;;;3.23;2.83;;;23.90;69.40;;;;;;5050489;28;20454;-74
2021/07/08 11:10:04;;;;;;;5.40;3.30;;;23.90;69.90;;;;;;5048075;28;20470;-74
2021/07/08 11:12:37;;;;;;;4.17;2.70;;;23.80;69.80;;;;;;5049684;28;20922;-73
2021/07/08 11:15:04;;;;;;;6.07;3.00;;;23.50;69.70;;;;;;5050840;28;20429;-75
2021/07/08 11:17:56;;;;;;;5.77;3.00;;;23.30;71.60;;;;;;5048923;28;20434;-74
2021/07/08 11:20:33;;;;;;;4.40;2.83;;;23.10;72.60;;;;;;5047895;28;20438;-74
2021/07/08 11:23:39;;;;;;;4.33;2.70;;;22.90;73.90;;;;;;5042175;28;20863;-73
2021/07/08 11:26:07;;;;;;;3.83;1.90;;;23.00;74.20;;;;;;5049976;28;20430;-75
2021/07/08 11:28:33;;;;;;;3.77;2.20;;;23.10;72.70;;;;;;5050138;28;20470;-72
2021/07/08 11:31:07;;;;;;;3.00;2.20;;;23.10;73.20;;;;;;5049931;28;20500;-72
2021/07/08 11:33:37;;;;;;;4.33;2.30;;;23.10;73.20;;;;;;5044479;28;20429;-76
2021/07/08 11:36:13;;;;;;;4.03;2.00;;;23.20;73.70;;;;;;5051504;28;20419;-75
2021/07/08 11:38:43;;;;;;;4.50;2.67;;;23.30;73.50;;;;;;5050987;28;20965;-74
2021/07/08 11:41:10;;;;;;;3.80;2.20;;;23.50;72.00;;;;;;5049487;28;20929;-74
2021/07/08 11:43:37;;;;;;;5.30;2.50;;;23.60;72.00;;;;;;5050076;28;20421;-74
2021/07/08 11:46:08;;;;;;;3.40;2.10;;;23.70;71.70;;;;;;5050193;28;20918;-74
2021/07/08 11:48:36;;;;;;;5.33;2.30;;;23.80;71.60;;;;;;5044566;28;20530;-75
2021/07/08 11:51:16;;;;;;;3.73;2.53;;;23.90;70.70;;;;;;5049085;28;20425;-76
2021/07/08 11:53:43;;;;;;;4.17;2.73;;;23.90;70.70;;;;;;5048736;28;20411;-75
2021/07/08 11:56:09;;;;;;;3.97;2.60;;;23.90;71.00;;;;;;5054767;28;20944;-74
2021/07/08 11:58:35;;;;;;;4.70;2.93;;;23.80;71.60;;;;;;5051898;28;20567;-75
2021/07/08 12:01:08;;;;;;;3.50;2.70;;;23.90;71.00;;;;;;5051823;28;20439;-74
2021/07/08 12:03:36;;;;;;;3.73;2.77;;;23.90;70.40;;;;;;5053565;28;20430;-73
2021/07/08 12:06:08;;;;;;;7.33;2.77;;;24.00;70.10;;;;;;5054557;28;20417;-75
2021/07/08 12:08:40;;;;;;;4.97;2.77;;;24.00;71.10;;;;;;5053318;28;20524;-75
2021/07/08 12:11:16;;;;;;;5.43;3.20;;;23.90;70.20;;;;;;5051510;28;20420;-75
2021/07/08 12:13:55;;;;;;;3.80;2.77;;;23.30;76.70;;;;;;5054363;28;20418;-75
2021/07/08 12:16:32;;;;;;;6.80;3.80;;;23.00;79.50;;;;;;5046080;28;20495;-74
2021/07/08 12:19:17;;;;;;;5.27;2.60;;;22.70;81.40;;;;;;5046173;28;20916;-74
2021/07/08 12:21:46;;;;;;;4.97;2.77;;;22.50;82.20;;;;;;5043178;28;20417;-75
2021/07/08 12:24:29;;;;;;;6.40;3.83;;;22.50;82.40;;;;;;5054499;28;20802;-75
2021/07/08 12:27:00;;;;;;;4.80;2.90;;;22.60;82.20;;;;;;5051490;28;20519;-74
2021/07/08 12:29:28;;;;;;;4.40;3.10;;;22.10;82.80;;;;;;5048575;28;20889;-74
2021/07/08 12:32:02;;;;;;;5.70;3.00;;;22.10;83.30;;;;;;5049481;28;20454;-74
2021/07/08 12:34:35;;;;;;;4.30;3.00;;;22.10;83.40;;;;;;5053684;28;20444;-73
2021/07/08 12:37:13;;;;;;;4.70;3.37;;;22.20;83.70;;;;;;5051972;28;20445;-74
2021/07/08 12:39:40;;;;;;;4.50;2.70;;;22.40;82.50;;;;;;5053774;28;20437;-73
2021/07/08 12:42:17;;;;;;;4.03;3.00;;;22.20;83.10;;;;;;5051876;28;20451;-74
2021/07/08 12:44:45;;;;;;;4.23;2.50;;;21.90;84.60;;;;;;5052545;28;20423;-73
2021/07/08 12:47:11;;;;;;;4.00;2.90;;;21.60;85.70;;;;;;5047585;28;20411;-72
2021/07/08 12:49:38;;;;;;;7.00;3.10;;;21.60;86.20;;;;;;5047815;28;20469;-73
2021/07/08 12:52:04;;;;;;;3.50;3.07;;;21.50;85.50;;;;;;5051251;28;20769;-74
2021/07/08 12:54:30;;;;;;;5.10;2.60;;;21.50;85.70;;;;;;5044498;28;20457;-75
2021/07/08 12:57:14;;;;;;;4.27;2.50;;;21.60;84.90;;;;;;5049250;28;20954;-74